Time;durP1;ratioP1;P1;durP2;ratioP2;P2;SDS_P1;SDS_P2;PMS_P1;PMS_P2;Temp;Humidity;BMP_temperature;BMP_pressure;BME280_temperature;BME280_humidity;BME280_pressure;Samples;Min_cycle;Max_cycle;Signal;HPM_P1;HPM_P2
2022/06/07 00:01:33;;;;;;;8.13;4.63;;;11.10;99.90;;;;;;4882397;29;20045;-85
2022/06/07 00:04:00;;;;;;;7.13;4.00;;;11.10;99.90;;;;;;4883399;29;20289;-84
2022/06/07 00:06:26;;;;;;;6.95;5.05;;;11.10;99.90;;;;;;4883097;29;20300;-84
2022/06/07 00:08:51;;;;;;;11.27;4.63;;;11.10;99.90;;;;;;4889766;29;20049;-84
2022/06/07 00:11:18;;;;;;;8.63;5.10;;;11.10;99.90;;;;;;4883083;29;20788;-84
2022/06/07 00:13:45;;;;;;;8.05;5.75;;;11.10;99.90;;;;;;4877218;29;20045;-84
2022/06/07 00:16:12;;;;;;;8.25;6.75;;;11.10;99.90;;;;;;4880043;29;20060;-84
2022/06/07 00:18:38;;;;;;;7.65;4.97;;;11.10;99.90;;;;;;4878847;29;20062;-84
2022/06/07 00:21:04;;;;;;;14.73;6.32;;;11.10;99.90;;;;;;4881473;29;20547;-84
2022/06/07 00:23:32;;;;;;;8.88;6.28;;;11.10;99.90;;;;;;4897936;29;20049;-86
2022/06/07 00:25:58;;;;;;;11.77;5.70;;;11.20;99.90;;;;;;4879914;29;20484;-84
2022/06/07 00:28:25;;;;;;;10.20;5.55;;;11.20;99.90;;;;;;4875138;29;20047;-83
2022/06/07 00:30:52;;;;;;;9.48;6.07;;;11.20;99.90;;;;;;4879084;29;20132;-84
2022/06/07 00:33:21;;;;;;;7.13;4.80;;;11.10;99.90;;;;;;4898004;29;20056;-84
2022/06/07 00:35:47;;;;;;;10.30;6.25;;;11.20;99.90;;;;;;4896734;29;20103;-84
2022/06/07 00:38:12;;;;;;;8.73;6.07;;;11.20;99.90;;;;;;4861248;29;20096;-85
2022/06/07 00:40:38;;;;;;;8.40;5.90;;;11.20;99.90;;;;;;4855056;29;20085;-84
2022/06/07 00:43:04;;;;;;;9.13;6.33;;;11.30;99.90;;;;;;4882391;29;20048;-84
2022/06/07 00:45:31;;;;;;;9.15;6.15;;;11.20;99.90;;;;;;4861742;29;20451;-84
2022/06/07 00:47:56;;;;;;;9.52;5.35;;;11.30;99.90;;;;;;4880881;29;20612;-84
2022/06/07 00:50:45;;;;;;;13.93;7.10;;;11.20;99.90;;;;;;4893230;29;20052;-84
2022/06/07 00:53:21;;;;;;;12.63;6.30;;;11.30;99.90;;;;;;4882100;29;20063;-85
2022/06/07 00:55:47;;;;;;;10.00;7.20;;;11.30;99.90;;;;;;4879107;29;20127;-84
2022/06/07 00:58:12;;;;;;;11.33;6.30;;;11.30;99.90;;;;;;4882074;29;20132;-84
2022/06/07 01:00:38;;;;;;;10.43;6.63;;;11.30;99.90;;;;;;4880878;29;20052;-89
2022/06/07 01:03:04;;;;;;;9.90;7.30;;;11.30;99.90;;;;;;4865948;29;20045;-84
2022/06/07 01:05:29;;;;;;;13.57;7.63;;;11.30;99.90;;;;;;4897364;29;20052;-84
2022/06/07 01:10:45;;;;;;;12.80;6.90;;;11.30;99.90;;;;;;4880352;29;20060;-87
2022/06/07 01:13:13;;;;;;;8.45;6.50;;;11.30;99.90;;;;;;4866942;29;20048;-84
2022/06/07 01:15:45;;;;;;;12.65;7.60;;;11.30;99.90;;;;;;4881155;29;20092;-85
2022/06/07 01:18:12;;;;;;;13.07;7.05;;;11.30;99.90;;;;;;4881233;29;20059;-86
2022/06/07 01:20:37;;;;;;;13.07;6.60;;;11.30;99.90;;;;;;4880727;29;20044;-84
2022/06/07 01:23:03;;;;;;;9.33;7.43;;;11.40;99.90;;;;;;4844483;29;20071;-84
2022/06/07 01:25:30;;;;;;;;;;;11.40;99.90;;;;;;4871525;29;20103;-84
2022/06/07 01:27:56;;;;;;;12.05;6.38;;;11.40;99.90;;;;;;4880602;29;19963;-84
2022/06/07 01:30:21;;;;;;;8.27;6.40;;;11.40;99.90;;;;;;4864995;29;20044;-85
2022/06/07 01:32:47;;;;;;;8.70;6.00;;;11.40;99.90;;;;;;4865691;29;20100;-84
2022/06/07 01:35:13;;;;;;;14.25;7.13;;;11.40;99.90;;;;;;4862972;29;20037;-84
2022/06/07 01:37:39;;;;;;;10.17;6.40;;;11.50;99.90;;;;;;4881331;29;20052;-84
2022/06/07 01:42:51;;;;;;;12.73;6.47;;;11.40;99.90;;;;;;4896168;29;20096;-84
2022/06/07 01:45:17;;;;;;;10.50;7.47;;;11.40;99.90;;;;;;4868534;29;20057;-84
2022/06/07 01:47:43;;;;;;;9.07;5.80;;;11.50;99.90;;;;;;4881125;29;20049;-84
2022/06/07 01:50:09;;;;;;;13.17;7.07;;;11.50;99.90;;;;;;4852384;29;20448;-88
2022/06/07 01:52:36;;;;;;;8.85;6.68;;;11.50;99.90;;;;;;4893513;29;20056;-84
2022/06/07 01:55:02;;;;;;;9.70;6.63;;;11.50;99.90;;;;;;4877720;29;20045;-84
2022/06/07 01:57:29;;;;;;;7.85;5.82;;;11.50;99.90;;;;;;4863641;29;20084;-84
2022/06/07 01:59:55;;;;;;;6.57;5.85;;;11.70;99.90;;;;;;4879936;29;20044;-84
2022/06/07 02:02:24;;;;;;;12.32;7.28;;;11.50;99.90;;;;;;4881001;29;20107;-84
2022/06/07 02:04:50;;;;;;;10.43;6.30;;;11.60;99.90;;;;;;4879673;29;20055;-85
2022/06/07 02:07:18;;;;;;;8.82;6.35;;;11.50;99.90;;;;;;4879924;29;20052;-84
2022/06/07 02:09:44;;;;;;;8.43;6.22;;;11.60;99.90;;;;;;4868758;29;20049;-84
2022/06/07 02:12:10;;;;;;;11.77;7.33;;;11.60;99.90;;;;;;4863326;29;20108;-86
2022/06/07 02:14:36;;;;;;;7.78;5.53;;;11.60;99.90;;;;;;4880933;29;20090;-84
2022/06/07 02:17:02;;;;;;;10.25;6.25;;;11.60;99.90;;;;;;4894902;29;20052;-84
2022/06/07 02:19:28;;;;;;;9.90;7.70;;;11.50;99.90;;;;;;4880734;29;20044;-84
2022/06/07 02:21:54;;;;;;;8.37;6.30;;;11.50;99.90;;;;;;4879756;29;20050;-85
2022/06/07 02:24:19;;;;;;;9.03;6.37;;;11.70;99.90;;;;;;4880389;29;20066;-85
2022/06/07 02:26:50;;;;;;;11.43;6.80;;;11.60;99.90;;;;;;4895018;29;20048;-84
2022/06/07 02:29:21;;;;;;;8.05;6.15;;;11.70;99.90;;;;;;4864682;29;20056;-84
2022/06/07 02:31:53;;;;;;;8.70;6.05;;;11.60;99.90;;;;;;4879365;29;20043;-84
2022/06/07 02:34:21;;;;;;;10.95;7.45;;;11.60;99.90;;;;;;4880441;29;20048;-84
2022/06/07 02:36:49;;;;;;;10.60;6.57;;;11.60;99.90;;;;;;4877967;29;20475;-84
2022/06/07 02:39:16;;;;;;;11.27;7.10;;;11.50;99.90;;;;;;4893073;29;20491;-84
2022/06/07 02:41:43;;;;;;;11.43;7.13;;;11.60;99.90;;;;;;4876723;29;20045;-84
2022/06/07 02:44:09;;;;;;;8.70;6.20;;;11.60;99.90;;;;;;4879478;29;20076;-84
2022/06/07 02:46:34;;;;;;;9.53;6.30;;;11.60;99.90;;;;;;4856221;29;20083;-84
2022/06/07 02:49:00;;;;;;;10.57;7.37;;;11.60;99.90;;;;;;4879074;29;20544;-84
2022/06/07 02:51:26;;;;;;;7.90;5.17;;;11.60;99.90;;;;;;4880007;29;20056;-84
2022/06/07 02:53:52;;;;;;;13.45;6.55;;;11.60;99.90;;;;;;4878329;29;20052;-84
2022/06/07 02:56:18;;;;;;;9.77;7.00;;;11.60;99.90;;;;;;4877221;29;20096;-84
2022/06/07 02:58:44;;;;;;;9.07;5.97;;;11.60;99.90;;;;;;4864968;29;20830;-84
2022/06/07 03:01:09;;;;;;;8.67;7.03;;;11.70;99.90;;;;;;4880033;29;20053;-85
2022/06/07 03:03:35;;;;;;;11.83;7.93;;;11.60;99.90;;;;;;4879510;29;20044;-85
2022/06/07 03:06:01;;;;;;;11.73;7.97;;;11.60;99.90;;;;;;4877032;29;20048;-85
2022/06/07 03:08:29;;;;;;;9.70;5.97;;;11.60;99.90;;;;;;4879838;29;20289;-84
2022/06/07 03:10:56;;;;;;;11.27;6.80;;;11.60;99.90;;;;;;4864496;29;20049;-88
2022/06/07 03:13:21;;;;;;;11.30;7.53;;;11.60;99.90;;;;;;4863356;29;20091;-85
2022/06/07 03:15:47;;;;;;;9.83;6.70;;;11.60;99.90;;;;;;4858153;29;20049;-84
2022/06/07 03:18:14;;;;;;;12.63;6.53;;;11.60;99.90;;;;;;4863102;29;20056;-84
2022/06/07 03:20:41;;;;;;;;;;;11.60;99.90;;;;;;4897085;29;20056;-84
2022/06/07 03:23:09;;;;;;;10.95;5.97;;;11.60;99.90;;;;;;4878138;29;19923;-85
2022/06/07 03:25:34;;;;;;;9.90;6.57;;;12.40;99.90;;;;;;4879671;29;20097;-84
2022/06/07 03:28:00;;;;;;;10.13;6.53;;;11.60;99.90;;;;;;4876069;29;20087;-88
2022/06/07 03:30:26;;;;;;;10.03;5.73;;;11.60;99.90;;;;;;4877929;29;20048;-84
2022/06/07 03:32:51;;;;;;;11.10;6.53;;;11.60;99.90;;;;;;4879529;29;20049;-85
2022/06/07 03:35:17;;;;;;;7.20;5.23;;;11.60;99.90;;;;;;4874184;29;20056;-85
2022/06/07 03:37:46;;;;;;;7.13;5.60;;;11.60;99.90;;;;;;4863688;29;20044;-84
2022/06/07 03:40:14;;;;;;;10.18;6.47;;;11.60;99.90;;;;;;4863816;29;20044;-84
2022/06/07 03:42:39;;;;;;;8.70;6.72;;;11.60;99.90;;;;;;4879227;29;20049;-84
2022/06/07 03:45:06;;;;;;;8.40;6.43;;;11.70;99.90;;;;;;4848097;29;20052;-84
2022/06/07 03:47:33;;;;;;;9.10;6.22;;;11.70;99.90;;;;;;4848145;29;20099;-85
2022/06/07 03:49:59;;;;;;;8.50;5.85;;;11.70;99.90;;;;;;4879548;29;20056;-84
2022/06/07 03:52:24;;;;;;;9.17;7.00;;;11.70;99.90;;;;;;4862420;29;20052;-85
2022/06/07 03:54:50;;;;;;;9.20;4.93;;;11.60;99.90;;;;;;4855353;29;20396;-85
2022/06/07 03:57:17;;;;;;;10.30;5.93;;;11.70;99.90;;;;;;4863349;29;20492;-84
2022/06/07 03:59:43;;;;;;;6.63;5.05;;;11.70;99.90;;;;;;4879146;29;20056;-84
2022/06/07 04:02:09;;;;;;;15.18;7.18;;;11.70;99.90;;;;;;4848315;29;20504;-85
2022/06/07 04:04:36;;;;;;;9.98;6.22;;;11.70;99.90;;;;;;4879386;29;20107;-85
2022/06/07 04:09:46;;;;;;;10.75;6.35;;;11.70;99.90;;;;;;4879373;29;20107;-84
2022/06/07 04:12:15;;;;;;;10.67;6.53;;;11.70;99.90;;;;;;4862191;29;20147;-84
2022/06/07 04:14:43;;;;;;;11.88;6.85;;;11.70;99.90;;;;;;4878198;29;20141;-85
2022/06/07 04:17:10;;;;;;;12.27;6.53;;;11.70;99.90;;;;;;4874884;29;20060;-84
2022/06/07 04:19:38;;;;;;;9.95;6.43;;;11.70;99.90;;;;;;4872534;29;20052;-84
2022/06/07 04:22:05;;;;;;;13.90;6.55;;;11.80;99.90;;;;;;4878826;29;20052;-84
2022/06/07 04:24:31;;;;;;;;;;;11.70;99.90;;;;;;4879066;29;20041;-85
2022/06/07 04:26:57;;;;;;;7.05;5.13;;;11.70;99.90;;;;;;4878086;29;19923;-85
2022/06/07 04:29:24;;;;;;;8.88;6.28;;;11.70;99.90;;;;;;4845883;29;20131;-84
2022/06/07 04:31:53;;;;;;;10.68;5.63;;;11.70;99.90;;;;;;4882609;29;20057;-84
2022/06/07 04:34:19;;;;;;;10.00;6.68;;;11.70;99.90;;;;;;4871357;29;20051;-85
2022/06/07 04:36:45;;;;;;;13.00;6.27;;;11.70;99.90;;;;;;4881462;29;20044;-85
2022/06/07 04:39:11;;;;;;;12.93;7.43;;;11.70;99.90;;;;;;4896660;29;20392;-85
2022/06/07 04:41:38;;;;;;;7.85;5.63;;;11.90;99.90;;;;;;4882635;29;20052;-84
2022/06/07 04:44:05;;;;;;;9.73;5.88;;;11.70;99.90;;;;;;4882035;29;20048;-85
2022/06/07 04:46:31;;;;;;;9.43;6.30;;;11.70;99.90;;;;;;4880786;29;20056;-85
2022/06/07 04:48:56;;;;;;;10.93;6.53;;;11.70;99.90;;;;;;4881155;29;20101;-86
2022/06/07 04:51:34;;;;;;;10.80;8.10;;;11.70;99.90;;;;;;4881662;29;20135;-84
2022/06/07 04:54:00;;;;;;;9.82;6.40;;;11.70;99.90;;;;;;4882319;29;20048;-85
2022/06/07 04:56:36;;;;;;;9.80;6.68;;;11.70;99.90;;;;;;4881386;29;20404;-84
2022/06/07 04:59:05;;;;;;;9.45;6.53;;;11.70;99.90;;;;;;4864370;29;20060;-84
2022/06/07 05:01:34;;;;;;;10.38;6.95;;;11.70;99.90;;;;;;4896281;29;20052;-84
2022/06/07 05:04:01;;;;;;;10.10;6.18;;;11.70;99.90;;;;;;4882267;29;20059;-84
2022/06/07 05:06:35;;;;;;;11.00;7.05;;;11.70;99.90;;;;;;4866015;29;20060;-84
2022/06/07 05:09:08;;;;;;;9.80;6.47;;;11.70;99.90;;;;;;4896571;29;20093;-84
2022/06/07 05:11:34;;;;;;;11.55;6.80;;;11.70;99.90;;;;;;4880080;29;20052;-84
2022/06/07 05:14:05;;;;;;;13.30;8.00;;;11.70;99.90;;;;;;4866371;29;20037;-84
2022/06/07 05:16:31;;;;;;;10.88;7.20;;;11.70;99.90;;;;;;4896383;29;20057;-85
2022/06/07 05:18:57;;;;;;;15.20;7.53;;;11.60;99.90;;;;;;4861226;29;20504;-84
2022/06/07 05:21:25;;;;;;;12.32;7.07;;;11.60;99.90;;;;;;4873796;29;20084;-84
2022/06/07 05:23:52;;;;;;;11.40;7.15;;;11.60;99.90;;;;;;4865866;29;20056;-85
2022/06/07 05:26:45;;;;;;;10.18;6.82;;;11.70;99.90;;;;;;4879572;29;20059;-84
2022/06/07 05:29:28;;;;;;;12.80;7.78;;;11.60;99.90;;;;;;4865233;29;20055;-84
2022/06/07 05:31:54;;;;;;;14.07;7.35;;;11.60;99.90;;;;;;4878537;29;20052;-84
2022/06/07 05:34:20;;;;;;;13.73;7.82;;;11.60;99.90;;;;;;4880409;29;20044;-84
2022/06/07 05:36:46;;;;;;;11.60;6.57;;;11.60;99.90;;;;;;4863832;29;20041;-84
2022/06/07 05:39:24;;;;;;;12.38;7.85;;;12.50;99.90;;;;;;4865089;29;20048;-83
2022/06/07 05:41:51;;;;;;;12.85;6.65;;;11.60;99.90;;;;;;4879764;29;20052;-84
2022/06/07 05:44:18;;;;;;;12.35;6.72;;;11.70;99.90;;;;;;4880724;29;20506;-90
2022/06/07 05:46:44;;;;;;;11.98;7.80;;;11.60;99.90;;;;;;4880648;29;20055;-84
2022/06/07 05:49:11;;;;;;;8.57;6.70;;;11.70;99.90;;;;;;4879401;29;20144;-84
2022/06/07 05:51:38;;;;;;;10.32;6.63;;;11.60;99.90;;;;;;4880182;29;20056;-84
2022/06/07 05:54:05;;;;;;;10.23;6.03;;;11.60;99.90;;;;;;4865795;29;20052;-84
2022/06/07 05:56:31;;;;;;;9.23;6.40;;;11.60;99.90;;;;;;4880302;29;20041;-83
2022/06/07 05:58:57;;;;;;;12.43;6.33;;;11.60;99.90;;;;;;4866584;29;20626;-86
2022/06/07 06:01:23;;;;;;;8.23;4.47;;;11.60;99.90;;;;;;4879595;29;20507;-84
2022/06/07 06:03:49;;;;;;;6.03;3.97;;;11.50;99.90;;;;;;4881152;29;20041;-84
2022/06/07 06:06:14;;;;;;;5.40;3.83;;;11.40;99.90;;;;;;4880795;29;20139;-84
2022/06/07 06:11:26;;;;;;;3.70;3.35;;;11.30;99.90;;;;;;4862073;29;20522;-85
2022/06/07 06:13:52;;;;;;;4.22;2.80;;;11.30;99.90;;;;;;4862869;29;20308;-84
2022/06/07 06:16:21;;;;;;;4.63;2.83;;;11.20;99.90;;;;;;4891996;29;20544;-83
2022/06/07 06:18:48;;;;;;;5.82;3.30;;;11.10;99.90;;;;;;4877405;29;20132;-83
2022/06/07 06:21:15;;;;;;;6.50;3.95;;;11.10;99.90;;;;;;4872154;29;20041;-84
2022/06/07 06:23:41;;;;;;;7.22;3.85;;;11.00;99.90;;;;;;4853673;29;20099;-83
2022/06/07 06:26:08;;;;;;;4.80;4.28;;;11.00;99.90;;;;;;4877487;29;20083;-83
2022/06/07 06:28:35;;;;;;;8.68;4.63;;;11.00;99.90;;;;;;4876564;29;20053;-84
2022/06/07 06:31:08;;;;;;;6.97;3.88;;;11.00;99.90;;;;;;4861615;29;20064;-82
2022/06/07 06:33:44;;;;;;;8.18;5.03;;;11.00;99.90;;;;;;4874915;29;20496;-82
2022/06/07 06:36:11;;;;;;;5.45;3.75;;;11.00;99.90;;;;;;4878111;29;20041;-82
2022/06/07 06:38:38;;;;;;;5.70;3.95;;;11.00;99.90;;;;;;4877327;29;20094;-84
2022/06/07 06:41:16;;;;;;;8.40;3.80;;;11.00;99.90;;;;;;4876076;29;20040;-83
2022/06/07 06:43:42;;;;;;;4.75;3.50;;;11.00;99.90;;;;;;4877199;29;20044;-81
2022/06/07 06:46:14;;;;;;;6.63;3.72;;;10.90;99.90;;;;;;4878093;29;20516;-81
2022/06/07 06:48:40;;;;;;;4.88;2.90;;;10.90;99.90;;;;;;4875924;29;20048;-84
2022/06/07 06:51:10;;;;;;;6.80;3.30;;;10.80;99.90;;;;;;4851607;29;20037;-83
2022/06/07 06:53:36;;;;;;;6.97;3.42;;;10.80;99.90;;;;;;4874100;29;20049;-83
2022/06/07 06:56:02;;;;;;;5.57;3.40;;;10.80;99.90;;;;;;4876747;29;20411;-82
2022/06/07 06:58:28;;;;;;;8.63;4.05;;;10.80;99.90;;;;;;4877164;29;20056;-88
2022/06/07 07:01:02;;;;;;;4.40;3.60;;;10.80;99.90;;;;;;4876182;29;20084;-82
2022/06/07 07:03:27;;;;;;;5.20;3.65;;;10.80;99.90;;;;;;4876875;29;20123;-88
2022/06/07 07:05:53;;;;;;;11.17;5.40;;;10.80;99.90;;;;;;4875021;29;20131;-82
2022/06/07 07:08:19;;;;;;;5.70;4.85;;;10.90;99.90;;;;;;4861765;29;20057;-83
2022/06/07 07:10:45;;;;;;;8.03;5.20;;;11.00;99.90;;;;;;4874254;29;20049;-82
2022/06/07 07:13:10;;;;;;;7.63;5.27;;;11.00;99.90;;;;;;4860338;29;20051;-82
2022/06/07 07:15:36;;;;;;;8.87;4.90;;;11.10;99.90;;;;;;4875849;29;20049;-82
2022/06/07 07:18:02;;;;;;;7.33;5.17;;;11.10;99.90;;;;;;4880169;29;20219;-84
2022/06/07 07:20:28;;;;;;;7.38;4.07;;;11.20;99.90;;;;;;4879380;29;20044;-83
2022/06/07 07:22:54;;;;;;;9.07;4.70;;;11.30;99.90;;;;;;4886533;29;20420;-81
2022/06/07 07:25:20;;;;;;;8.23;3.85;;;11.30;99.90;;;;;;4895478;29;20435;-81
2022/06/07 07:27:46;;;;;;;6.23;4.57;;;11.30;99.90;;;;;;4892969;29;20056;-81
2022/06/07 07:30:12;;;;;;;8.07;4.83;;;11.30;99.90;;;;;;4879733;29;20060;-83
2022/06/07 07:32:37;;;;;;;6.80;4.85;;;11.40;99.90;;;;;;4893856;29;20131;-84
2022/06/07 07:35:03;;;;;;;7.50;4.27;;;11.40;99.90;;;;;;4879575;29;20131;-81
2022/06/07 07:37:29;;;;;;;5.70;4.35;;;11.40;99.90;;;;;;4896122;29;20040;-81
2022/06/07 07:39:55;;;;;;;7.07;4.23;;;11.40;99.90;;;;;;4893640;29;20044;-81
2022/06/07 07:42:20;;;;;;;5.50;3.50;;;11.40;99.90;;;;;;4877331;29;20064;-82
2022/06/07 07:44:47;;;;;;;5.23;3.50;;;11.50;99.90;;;;;;4870119;29;20048;-81
2022/06/07 07:47:13;;;;;;;5.05;3.53;;;11.50;99.90;;;;;;4876041;29;20088;-80
2022/06/07 07:49:38;;;;;;;5.40;3.50;;;11.50;99.90;;;;;;4876862;29;20151;-82
2022/06/07 07:52:04;;;;;;;8.63;3.93;;;11.50;99.90;;;;;;4877781;29;20048;-82
2022/06/07 07:54:30;;;;;;;7.97;4.27;;;11.50;99.90;;;;;;4877688;29;20056;-82
2022/06/07 07:56:56;;;;;;;10.37;3.83;;;11.60;99.90;;;;;;4895363;29;20926;-83
2022/06/07 07:59:22;;;;;;;7.67;4.10;;;11.60;99.90;;;;;;4893117;29;20504;-82
2022/06/07 08:01:49;;;;;;;4.35;2.95;;;11.60;99.90;;;;;;4864093;29;20488;-83
2022/06/07 08:04:15;;;;;;;6.85;3.00;;;11.60;99.90;;;;;;4878543;29;20056;-84
2022/06/07 08:06:41;;;;;;;4.07;3.17;;;11.60;99.90;;;;;;4897751;29;20492;-82
2022/06/07 08:09:09;;;;;;;5.80;2.87;;;11.60;99.90;;;;;;4900760;29;20095;-81
2022/06/07 08:11:37;;;;;;;3.03;2.38;;;11.50;99.90;;;;;;4896457;29;20041;-84
2022/06/07 08:14:06;;;;;;;4.15;2.80;;;11.60;99.90;;;;;;4895151;29;20079;-84
2022/06/07 08:16:32;;;;;;;4.03;2.60;;;11.60;99.90;;;;;;4877963;29;20063;-85
2022/06/07 08:18:58;;;;;;;2.40;2.05;;;11.50;99.90;;;;;;4882918;29;20657;-87
2022/06/07 08:21:27;;;;;;;3.45;2.25;;;11.50;99.90;;;;;;4867625;29;20087;-87
2022/06/07 08:23:55;;;;;;;5.95;2.90;;;11.50;99.90;;;;;;4871224;29;20060;-85
2022/06/07 08:26:22;;;;;;;4.22;3.17;;;11.60;99.90;;;;;;4892640;29;20123;-84
2022/06/07 08:28:48;;;;;;;2.95;2.63;;;11.50;99.90;;;;;;4865142;29;20051;-84
2022/06/07 08:31:19;;;;;;;5.78;2.75;;;11.50;99.90;;;;;;4875582;29;20048;-84
2022/06/07 08:39:15;;;;;;;6.57;2.92;;;11.50;99.90;;;;;;4885691;29;20440;-86
2022/06/07 08:41:51;;;;;;;8.27;2.90;;;11.60;99.90;;;;;;4877999;29;20452;-84
2022/06/07 08:44:47;;;;;;;5.32;2.88;;;11.60;99.90;;;;;;4877056;29;20128;-84
2022/06/07 08:47:16;;;;;;;5.63;3.30;;;11.60;99.90;;;;;;4858777;29;20068;-85
2022/06/07 08:49:42;;;;;;;4.78;3.30;;;11.60;99.90;;;;;;4866877;29;20199;-86
2022/06/07 08:52:26;;;;;;;7.68;3.47;;;11.60;99.90;;;;;;4883407;29;20646;-85
2022/06/07 08:54:53;;;;;;;7.07;3.35;;;11.60;99.90;;;;;;4876365;29;20150;-85
2022/06/07 08:57:23;;;;;;;4.30;3.17;;;11.60;99.90;;;;;;4867247;29;20048;-85
2022/06/07 08:59:54;;;;;;;7.50;4.57;;;11.60;99.90;;;;;;4876565;29;20063;-85
2022/06/07 09:03:12;;;;;;;5.70;3.25;;;11.60;99.90;;;;;;4863289;29;20045;-85
2022/06/07 09:05:37;;;;;;;6.28;3.97;;;11.60;99.90;;;;;;4852772;29;20052;-86
2022/06/07 09:08:03;;;;;;;5.70;3.20;;;11.60;99.90;;;;;;4859035;29;20049;-88
2022/06/07 09:13:19;;;;;;;6.95;4.28;;;11.60;99.90;;;;;;4881109;29;20067;-85
2022/06/07 09:15:49;;;;;;;6.53;3.97;;;11.60;99.90;;;;;;4877981;29;20044;-84
2022/06/07 09:18:18;;;;;;;8.93;4.22;;;11.60;99.90;;;;;;4872854;29;20135;-85
2022/06/07 09:20:48;;;;;;;5.93;3.60;;;11.70;99.90;;;;;;4866727;29;20048;-85
2022/06/07 09:23:27;;;;;;;7.07;5.03;;;11.60;99.90;;;;;;4858564;29;20057;-85
2022/06/07 09:25:55;;;;;;;5.53;3.47;;;11.60;99.90;;;;;;4866713;29;20516;-85
2022/06/07 09:28:27;;;;;;;7.03;3.38;;;11.70;99.90;;;;;;4882445;29;20128;-85
2022/06/07 09:31:05;;;;;;;5.60;3.60;;;11.70;99.90;;;;;;4882556;29;20063;-85
2022/06/07 09:33:33;;;;;;;4.07;2.30;;;11.70;99.90;;;;;;4892872;29;20049;-85
2022/06/07 09:36:08;;;;;;;3.25;2.17;;;11.80;99.90;;;;;;4865979;29;20103;-85
2022/06/07 09:38:45;;;;;;;3.00;1.95;;;11.80;99.90;;;;;;4882825;29;20199;-84
2022/06/07 09:41:40;;;;;;;4.25;1.70;;;11.80;99.90;;;;;;4866276;29;20111;-86
2022/06/07 09:44:21;;;;;;;3.97;1.70;;;11.80;99.90;;;;;;4881394;29;20056;-88
2022/06/07 09:47:00;;;;;;;2.67;1.17;;;11.80;99.90;;;;;;4877888;29;20399;-87
2022/06/07 09:49:32;;;;;;;2.10;1.20;;;11.90;99.90;;;;;;4873860;29;20551;-86
2022/06/07 09:52:28;;;;;;;1.63;1.30;;;11.90;99.90;;;;;;4876611;29;20056;-85
2022/06/07 09:55:04;;;;;;;2.03;1.30;;;11.90;99.90;;;;;;4878086;29;20072;-86
2022/06/07 09:57:39;;;;;;;2.33;1.30;;;11.90;99.90;;;;;;4879464;29;20052;-84
2022/06/07 10:00:08;;;;;;;2.70;1.05;;;11.90;99.90;;;;;;4879363;29;20431;-84
2022/06/07 10:03:08;;;;;;;1.73;1.63;;;11.90;99.90;;;;;;4880471;29;20048;-84
2022/06/07 10:06:27;;;;;;;2.53;1.10;;;11.90;99.90;;;;;;4877192;29;20099;-84
2022/06/07 10:09:24;;;;;;;1.83;0.90;;;11.90;99.90;;;;;;4864915;29;20057;-85
2022/06/07 10:12:14;;;;;;;2.20;1.02;;;12.00;99.90;;;;;;4870992;29;20057;-89
2022/06/07 10:15:25;;;;;;;1.55;1.00;;;12.00;99.90;;;;;;4870195;29;20056;-86
2022/06/07 10:18:15;;;;;;;1.15;1.05;;;12.00;99.90;;;;;;4866589;29;20100;-87
2022/06/07 10:21:02;;;;;;;2.90;1.52;;;12.00;99.90;;;;;;4867017;29;20108;-87
2022/06/07 10:23:54;;;;;;;1.98;1.27;;;12.00;99.90;;;;;;4870586;29;20496;-86
2022/06/07 10:26:42;;;;;;;1.27;0.90;;;12.00;99.90;;;;;;4879192;29;20127;-86
2022/06/07 10:29:17;;;;;;;2.78;1.00;;;12.00;99.90;;;;;;4897136;29;20127;-84
2022/06/07 10:31:55;;;;;;;0.98;0.60;;;12.00;99.90;;;;;;4882371;29;20057;-86
2022/06/07 10:34:39;;;;;;;1.20;1.00;;;12.00;99.90;;;;;;4870260;29;20056;-84
2022/06/07 10:37:47;;;;;;;3.35;0.70;;;12.10;99.90;;;;;;4879095;29;20088;-84
2022/06/07 10:40:32;;;;;;;1.37;1.27;;;12.10;99.90;;;;;;4868711;29;20511;-87
2022/06/07 10:43:16;;;;;;;1.75;0.93;;;12.10;99.90;;;;;;4879839;29;20044;-87
2022/06/07 10:45:44;;;;;;;0.80;0.77;;;12.50;99.90;;;;;;4878232;29;20045;-84
2022/06/07 10:48:35;;;;;;;0.93;0.85;;;12.10;99.90;;;;;;4860938;29;20139;-83
2022/06/07 10:51:06;;;;;;;0.70;0.70;;;12.10;99.90;;;;;;4862453;29;20060;-86
2022/06/07 10:53:42;;;;;;;1.95;1.08;;;12.10;99.90;;;;;;4877275;29;20048;-84
2022/06/07 10:56:27;;;;;;;1.50;0.95;;;12.10;99.90;;;;;;4876519;29;20127;-84
2022/06/07 10:58:54;;;;;;;2.03;0.98;;;12.10;99.90;;;;;;4879795;29;20048;-85
2022/06/07 11:01:42;;;;;;;1.92;1.50;;;12.20;99.90;;;;;;4878773;29;20040;-87
2022/06/07 11:10:39;;;;;;;1.20;1.10;;;12.30;99.90;;;;;;4864682;29;20152;-85
2022/06/07 11:13:39;;;;;;;2.60;1.27;;;12.30;99.90;;;;;;4866778;29;20060;-87
2022/06/07 11:16:28;;;;;;;3.80;0.98;;;12.40;99.90;;;;;;4872732;29;20385;-90
2022/06/07 11:18:54;;;;;;;1.55;1.10;;;12.50;99.90;;;;;;4892926;29;20052;-83
2022/06/07 11:21:47;;;;;;;1.77;1.17;;;12.50;99.90;;;;;;4892924;29;20101;-85
2022/06/07 11:24:22;;;;;;;1.73;1.58;;;12.50;99.90;;;;;;4869642;29;20096;-85
2022/06/07 11:26:50;;;;;;;3.13;1.38;;;12.50;99.90;;;;;;4881064;29;20060;-84
2022/06/07 11:29:21;;;;;;;8.38;1.58;;;12.60;99.90;;;;;;4877282;29;20127;-85
2022/06/07 11:31:47;;;;;;;1.80;1.63;;;12.60;99.90;;;;;;4879653;29;20056;-84
2022/06/07 11:34:18;;;;;;;3.10;2.53;;;12.50;99.90;;;;;;4848660;29;20500;-85
2022/06/07 11:36:44;;;;;;;1.85;1.10;;;12.50;99.90;;;;;;4880830;29;20309;-85
2022/06/07 11:39:30;;;;;;;2.20;2.00;;;12.60;99.90;;;;;;4896870;29;20059;-85
2022/06/07 11:42:11;;;;;;;2.10;1.45;;;12.60;99.90;;;;;;4884527;29;20064;-85
2022/06/07 11:44:45;;;;;;;3.40;2.00;;;12.70;99.90;;;;;;4885581;29;20052;-84
2022/06/07 11:47:11;;;;;;;2.05;1.85;;;12.70;99.90;;;;;;4884261;29;20056;-85
2022/06/07 11:49:40;;;;;;;4.33;1.47;;;12.70;99.90;;;;;;4870036;29;20056;-85
2022/06/07 11:52:11;;;;;;;1.20;1.08;;;12.80;99.90;;;;;;4884223;29;20053;-85
2022/06/07 11:54:47;;;;;;;7.45;2.65;;;12.90;99.90;;;;;;4879153;29;20057;-85
2022/06/07 11:57:29;;;;;;;1.50;1.40;;;12.90;99.90;;;;;;4865204;29;20053;-85
2022/06/07 12:00:00;;;;;;;2.72;1.95;;;12.90;99.90;;;;;;4869667;29;20059;-84
2022/06/07 12:02:28;;;;;;;2.60;1.67;;;12.90;99.90;;;;;;4864864;29;20049;-84
2022/06/07 12:05:00;;;;;;;2.65;1.65;;;12.90;99.90;;;;;;4865744;29;20064;-84
2022/06/07 12:07:29;;;;;;;2.10;1.50;;;13.00;99.90;;;;;;4849950;29;20061;-85
2022/06/07 12:09:58;;;;;;;3.30;1.60;;;13.00;99.90;;;;;;4877045;29;20052;-86
2022/06/07 12:12:33;;;;;;;3.90;1.80;;;13.00;99.90;;;;;;4866537;29;20056;-85
2022/06/07 12:15:22;;;;;;;4.57;2.10;;;12.90;99.90;;;;;;4898931;29;20052;-85
2022/06/07 12:17:56;;;;;;;4.15;2.67;;;12.90;99.90;;;;;;4884205;29;20108;-83
2022/06/07 12:20:27;;;;;;;2.30;1.80;;;12.80;99.90;;;;;;4900633;29;20063;-84
2022/06/07 12:22:56;;;;;;;2.13;1.55;;;12.80;99.90;;;;;;4895048;29;20061;-85
2022/06/07 12:25:22;;;;;;;3.67;1.60;;;12.80;99.90;;;;;;4883559;29;20055;-85
2022/06/07 12:27:53;;;;;;;;;;;12.70;99.90;;;;;;4878762;29;20044;-86
2022/06/07 12:30:27;;;;;;;4.65;1.70;;;12.70;99.90;;;;;;4864907;29;20289;-85
2022/06/07 12:32:54;;;;;;;6.53;1.55;;;12.70;99.90;;;;;;4875384;29;20162;-85
2022/06/07 12:35:29;;;;;;;3.70;2.22;;;12.60;99.90;;;;;;4867161;29;20056;-85
2022/06/07 12:37:58;;;;;;;3.20;2.47;;;12.70;99.90;;;;;;4881505;29;20124;-85
2022/06/07 12:40:44;;;;;;;1.10;1.00;;;12.60;99.90;;;;;;4864445;29;20048;-85
2022/06/07 12:43:29;;;;;;;2.03;1.77;;;12.60;99.90;;;;;;4868968;29;20285;-85
2022/06/07 12:46:31;;;;;;;4.35;2.00;;;12.60;99.90;;;;;;4881657;29;20055;-84
2022/06/07 12:48:59;;;;;;;4.22;2.17;;;12.60;99.90;;;;;;4873913;29;20514;-84
2022/06/07 12:51:24;;;;;;;3.58;2.47;;;12.60;99.90;;;;;;4867633;29;20488;-84
2022/06/07 12:54:06;;;;;;;4.07;1.90;;;12.60;99.90;;;;;;4850629;29;20065;-84
2022/06/07 12:56:37;;;;;;;2.38;1.80;;;12.70;99.90;;;;;;4875893;29;20403;-84
2022/06/07 12:59:17;;;;;;;4.53;1.58;;;12.60;99.90;;;;;;4877130;29;20108;-84
2022/06/07 13:01:48;;;;;;;2.30;1.65;;;12.70;99.90;;;;;;4883149;29;20115;-83
2022/06/07 13:04:36;;;;;;;5.57;2.22;;;12.80;99.90;;;;;;4869122;29;20105;-83
2022/06/07 13:07:22;;;;;;;2.72;1.52;;;12.90;99.90;;;;;;4871105;29;20439;-85
2022/06/07 13:09:53;;;;;;;4.45;2.00;;;13.10;99.90;;;;;;4883091;29;20049;-84
2022/06/07 13:12:43;;;;;;;3.17;1.75;;;13.20;99.90;;;;;;4883045;29;20056;-89
2022/06/07 13:15:25;;;;;;;2.70;2.25;;;13.30;99.90;;;;;;4873041;29;20049;-83
2022/06/07 13:18:02;;;;;;;3.22;1.90;;;13.40;99.90;;;;;;4880904;29;20060;-85
2022/06/07 13:20:40;;;;;;;;;;;13.50;99.90;;;;;;4880025;29;20048;-84
2022/06/07 13:23:15;;;;;;;2.47;1.83;;;13.60;99.90;;;;;;4881923;29;19924;-84
2022/06/07 13:25:41;;;;;;;5.10;1.67;;;13.70;99.90;;;;;;4860407;29;20276;-84
2022/06/07 13:28:22;;;;;;;1.67;1.47;;;13.70;99.90;;;;;;4879793;29;20508;-84
2022/06/07 13:30:54;;;;;;;14.18;2.53;;;13.70;99.90;;;;;;4895708;29;20559;-83